createdAt,value
2022-11-21T11:57:52.483Z,17.00
2022-11-21T12:03:04.234Z,17.33
2022-11-21T12:13:41.993Z,17.20
2022-11-21T12:19:06.693Z,17.17
2022-11-21T12:24:22.393Z,17.03
2022-11-21T12:29:47.030Z,16.94
2022-11-21T12:35:08.341Z,16.96
2022-11-21T12:40:31.257Z,16.80
2022-11-21T12:45:34.490Z,16.74
2022-11-21T12:51:28.696Z,16.70
2022-11-21T12:56:39.970Z,16.53
2022-11-21T13:02:19.258Z,16.46
2022-11-21T13:07:40.850Z,16.44
2022-11-21T13:15:26.360Z,16.48
2022-11-21T13:20:38.018Z,16.55
2022-11-21T13:25:40.956Z,16.54
2022-11-21T13:30:54.162Z,16.57
2022-11-21T13:35:56.540Z,16.52
2022-11-21T13:41:21.635Z,16.51
2022-11-21T13:47:02.631Z,16.41
2022-11-21T13:52:33.750Z,16.24
2022-11-21T13:57:50.849Z,16.19
2022-11-21T14:03:13.331Z,16.13
2022-11-21T14:08:18.408Z,16.09
2022-11-21T14:13:28.632Z,15.97
2022-11-21T14:23:19.390Z,15.80
2022-11-21T14:28:29.668Z,15.69
2022-11-21T14:33:33.299Z,15.65
2022-11-21T14:39:07.655Z,15.56
2022-11-21T14:44:11.214Z,15.53
2022-11-21T14:49:21.084Z,15.46
2022-11-21T14:54:27.203Z,15.42
2022-11-21T14:59:34.881Z,15.39
2022-11-21T15:04:36.728Z,15.30
2022-11-21T15:15:06.641Z,15.36
2022-11-21T15:20:14.206Z,15.39
2022-11-21T15:25:20.433Z,15.43
2022-11-21T15:30:27.121Z,15.46
2022-11-21T15:35:37.762Z,15.46
2022-11-21T15:40:42.992Z,15.47
2022-11-21T15:45:47.452Z,15.45
2022-11-21T15:50:49.273Z,15.39
2022-11-21T15:55:51.815Z,15.36
2022-11-21T16:00:53.645Z,15.27
2022-11-21T16:05:55.466Z,15.25
2022-11-21T16:10:57.955Z,15.30
2022-11-21T16:16:00.964Z,15.30
2022-11-21T16:21:10.992Z,15.21
2022-11-21T16:26:12.849Z,15.23
2022-11-21T16:31:23.199Z,15.28
2022-11-21T16:36:27.622Z,15.31
2022-11-21T16:41:29.503Z,15.20
2022-11-21T16:46:31.251Z,15.13
2022-11-21T16:51:33.027Z,14.91
2022-11-21T16:56:34.866Z,14.85
2022-11-21T17:01:36.732Z,14.83
2022-11-21T17:06:38.582Z,14.85
2022-11-21T17:11:40.332Z,14.81
2022-11-21T17:16:42.160Z,14.82
2022-11-21T17:21:43.977Z,14.81
2022-11-21T17:26:45.783Z,14.87
2022-11-21T17:31:51.168Z,14.96
2022-11-21T17:36:52.911Z,14.99
2022-11-21T17:41:54.817Z,14.92
2022-11-21T17:46:59.232Z,15.00
2022-11-21T17:52:01.023Z,15.08
2022-11-21T17:57:03.046Z,15.06
2022-11-21T18:02:05.061Z,15.02
2022-11-21T18:07:07.062Z,15.06
2022-11-21T18:12:08.932Z,15.14
2022-11-21T18:17:10.858Z,15.09
2022-11-21T18:22:12.638Z,15.05
2022-11-21T18:27:14.371Z,15.05
2022-11-21T18:32:16.149Z,15.05
2022-11-21T18:37:17.898Z,15.02
2022-11-21T18:42:19.669Z,14.91
2022-11-21T18:47:21.405Z,14.83
2022-11-21T18:52:23.324Z,14.71
2022-11-21T18:57:25.094Z,14.66
2022-11-21T19:02:26.888Z,14.58
2022-11-21T19:07:28.905Z,14.52
2022-11-21T19:12:36.274Z,14.60
2022-11-21T19:17:41.018Z,14.39
2022-11-21T19:22:42.793Z,14.19
2022-11-21T19:27:44.576Z,14.13
2022-11-21T19:32:46.352Z,14.05
2022-11-21T19:37:48.122Z,14.05
2022-11-21T19:42:49.893Z,14.02
2022-11-21T19:47:56.953Z,14.03
2022-11-21T19:52:58.702Z,14.02
2022-11-21T19:58:00.509Z,14.08
2022-11-21T20:03:02.283Z,14.11
2022-11-21T20:08:09.934Z,14.10
2022-11-21T20:13:18.332Z,13.99
2022-11-21T20:18:20.160Z,13.87
2022-11-21T20:23:21.921Z,13.74
2022-11-21T20:28:24.975Z,13.71
2022-11-21T20:33:26.710Z,13.72
2022-11-21T20:38:28.450Z,13.62
2022-11-21T20:44:02.774Z,13.46
2022-11-21T20:48:51.839Z,13.40
2022-11-21T20:53:57.223Z,13.29
2022-11-21T20:59:05.408Z,13.17
2022-11-21T21:04:09.304Z,13.05
2022-11-21T21:09:11.098Z,12.94
2022-11-21T21:14:12.742Z,12.79
2022-11-21T21:19:14.475Z,12.54
2022-11-21T21:24:17.281Z,12.38
2022-11-21T21:29:21.163Z,12.23
2022-11-21T21:34:23.158Z,12.17
2022-11-21T21:39:25.528Z,12.07
2022-11-21T21:44:33.061Z,11.84
2022-11-21T21:49:35.484Z,11.67
2022-11-21T21:54:37.204Z,11.54
2022-11-21T21:59:38.847Z,11.44
2022-11-21T22:04:40.579Z,11.37
2022-11-21T22:09:42.469Z,11.31
2022-11-21T22:14:49.420Z,11.11
2022-11-21T22:19:51.180Z,10.82
2022-11-21T22:24:53.009Z,10.56
2022-11-21T22:29:55.191Z,10.61
2022-11-21T22:35:00.932Z,10.58
2022-11-21T22:40:02.845Z,10.37
2022-11-21T22:45:05.184Z,10.13
2022-11-21T22:50:07.964Z,10.01
2022-11-21T22:55:09.755Z,9.94
2022-11-21T23:00:12.198Z,10.06
2022-11-21T23:05:14.009Z,10.09
2022-11-21T23:10:16.058Z,10.20
2022-11-21T23:15:17.842Z,10.36
2022-11-21T23:20:19.618Z,10.44
2022-11-21T23:25:21.400Z,10.62
2022-11-21T23:30:23.154Z,10.68
2022-11-21T23:35:24.959Z,10.69
2022-11-21T23:40:26.692Z,10.79
2022-11-21T23:45:29.086Z,10.91
2022-11-21T23:50:30.883Z,10.92
2022-11-21T23:55:32.697Z,10.83
